Time;durP1;ratioP1;P1;durP2;ratioP2;P2;SDS_P1;SDS_P2;PMS_P1;PMS_P2;Temp;Humidity;BMP_temperature;BMP_pressure;BME280_temperature;BME280_humidity;BME280_pressure;Samples;Min_cycle;Max_cycle;Signal;HPM_P1;HPM_P2
2021/08/17 00:01:47;;;;;;;9.87;2.30;;;;;;;15.29;77.01;100729.03;2617025;54;20620;-78
2021/08/17 00:04:13;;;;;;;8.47;2.37;;;;;;;15.48;76.26;100710.09;2615910;47;20183;-77
2021/08/17 00:06:38;;;;;;;8.70;2.07;;;;;;;15.33;76.65;100715.28;2616829;54;20132;-77
2021/08/17 00:09:03;;;;;;;7.03;2.10;;;;;;;15.19;77.29;100717.03;2617051;39;20747;-77
2021/08/17 00:11:29;;;;;;;9.60;2.23;;;;;;;15.26;77.32;100723.88;2616799;54;20247;-77
2021/08/17 00:13:55;;;;;;;8.90;2.23;;;;;;;15.28;77.03;100715.25;2616685;54;20163;-76
2021/08/17 00:16:20;;;;;;;11.37;2.27;;;;;;;15.21;77.18;100713.56;2616902;54;20126;-76
2021/08/17 00:18:45;;;;;;;12.50;2.33;;;;;;;15.12;77.84;100711.00;2616897;47;20148;-75
2021/08/17 00:21:13;;;;;;;7.87;2.07;;;;;;;15.11;78.07;100708.44;2616808;54;20124;-76
2021/08/17 00:23:39;;;;;;;11.87;2.43;;;;;;;15.11;77.10;100704.09;2617101;54;20665;-77
2021/08/17 00:26:04;;;;;;;10.00;2.30;;;;;;;15.22;76.94;100706.69;2617003;54;20127;-78
2021/08/17 00:28:29;;;;;;;9.57;1.93;;;;;;;15.24;76.84;100712.72;2617438;39;20555;-76
2021/08/17 00:30:54;;;;;;;7.07;2.27;;;;;;;15.29;76.21;100719.56;2616781;54;20207;-76
2021/08/17 00:33:20;;;;;;;5.77;1.80;;;;;;;15.19;77.50;100706.69;2617046;46;20253;-75
2021/08/17 00:35:45;;;;;;;9.80;2.50;;;;;;;15.33;76.93;100715.28;2617125;47;20158;-77
2021/08/17 00:38:10;;;;;;;11.53;2.10;;;;;;;15.15;77.85;100723.03;2616938;54;20151;-76
2021/08/17 00:40:36;;;;;;;6.77;2.03;;;;;;;15.03;78.02;100726.50;2616818;54;20683;-77
2021/08/17 00:43:02;;;;;;;15.10;2.83;;;;;;;15.15;77.76;100728.19;2616227;47;20143;-78
2021/08/17 00:45:30;;;;;;;11.37;2.50;;;;;;;15.02;78.02;100723.91;2616994;39;20589;-77
2021/08/17 00:47:56;;;;;;;10.30;2.43;;;;;;;15.05;78.05;100729.06;2616619;54;20155;-76
2021/08/17 00:50:23;;;;;;;7.50;2.30;;;;;;;15.20;77.35;100731.63;2616720;54;20120;-76
2021/08/17 00:52:49;;;;;;;7.40;2.30;;;;;;;15.17;76.96;100731.63;2616721;54;20223;-77
2021/08/17 00:55:15;;;;;;;6.47;1.90;;;;;;;15.03;77.56;100723.91;2616859;54;20740;-77
2021/08/17 00:57:41;;;;;;;10.23;2.27;;;;;;;15.02;77.70;100731.66;2616504;54;20179;-78
2021/08/17 01:00:08;;;;;;;8.00;2.03;;;;;;;15.10;77.33;100730.75;2616688;54;20658;-76
2021/08/17 01:02:33;;;;;;;7.63;1.83;;;;;;;15.05;77.94;100734.22;2616717;54;20124;-77
2021/08/17 01:05:00;;;;;;;7.80;2.10;;;;;;;15.07;78.19;100750.56;2617452;39;20637;-77
2021/08/17 01:07:25;;;;;;;8.20;2.17;;;;;;;15.14;77.67;100760.03;2616540;54;20147;-78
2021/08/17 01:09:50;;;;;;;11.23;2.80;;;;;;;15.30;76.65;100757.44;2616856;54;20157;-76
2021/08/17 01:12:15;;;;;;;7.13;2.00;;;;;;;15.29;76.55;100750.53;2616698;47;20144;-76
2021/08/17 01:14:41;;;;;;;5.70;1.87;;;;;;;15.25;76.51;100759.16;2616667;54;20147;-75
2021/08/17 01:17:06;;;;;;;8.73;2.13;;;;;;;15.19;76.81;100753.13;2616626;54;20719;-75
2021/08/17 01:19:33;;;;;;;7.67;2.20;;;;;;;15.13;76.87;100755.69;2616657;54;20665;-77
2021/08/17 01:21:59;;;;;;;9.33;2.20;;;;;;;15.15;76.92;100757.41;2617171;39;20525;-76
2021/08/17 01:24:25;;;;;;;6.20;1.70;;;;;;;15.18;76.25;100756.56;2617240;39;20494;-75
2021/08/17 01:26:50;;;;;;;9.63;2.40;;;;;;;15.12;76.66;100754.00;2616687;54;20135;-77
2021/08/17 01:29:16;;;;;;;10.80;2.00;;;;;;;15.08;77.06;100762.59;2616778;46;20167;-77
2021/08/17 01:31:42;;;;;;;5.87;2.37;;;;;;;15.25;75.85;100755.69;2616294;47;20139;-76
2021/08/17 01:34:07;;;;;;;5.63;1.80;;;;;;;15.23;75.58;100767.72;2616685;54;20120;-77
2021/08/17 01:36:33;;;;;;;6.83;1.63;;;;;;;14.99;76.92;100775.47;2615863;54;20116;-77
2021/08/17 01:38:59;;;;;;;5.97;1.70;;;;;;;14.89;77.60;100784.06;2616428;54;20135;-77
2021/08/17 01:41:25;;;;;;;10.07;2.23;;;;;;;15.18;76.70;100790.09;2616938;39;20605;-76
2021/08/17 01:43:50;;;;;;;6.37;2.03;;;;;;;15.21;76.47;100788.38;2616655;54;20127;-77
2021/08/17 01:46:16;;;;;;;7.47;2.07;;;;;;;15.18;76.26;100797.81;2616624;54;20131;-78
2021/08/17 01:48:42;;;;;;;6.63;1.77;;;;;;;15.25;76.11;100797.84;2616557;54;20676;-78
2021/08/17 01:51:08;;;;;;;8.83;1.90;;;;;;;15.35;75.82;100796.16;2616058;54;20159;-77
2021/08/17 01:53:34;;;;;;;6.50;1.90;;;;;;;15.36;76.41;100796.16;2616739;54;20120;-78
2021/08/17 01:56:13;;;;;;;10.30;2.80;;;;;;;15.29;76.44;100801.28;2616999;54;20148;-76
2021/08/17 01:58:40;;;;;;;7.13;2.23;;;;;;;15.20;76.91;100809.03;2616701;54;20138;-76
2021/08/17 02:01:07;;;;;;;8.07;2.07;;;;;;;15.37;76.67;100804.75;2616705;54;20272;-77
2021/08/17 02:03:33;;;;;;;9.40;2.10;;;;;;;15.36;76.25;100818.50;2617151;39;20546;-78
2021/08/17 02:05:59;;;;;;;7.80;1.67;;;;;;;15.28;76.19;100821.06;2616607;54;20139;-77
2021/08/17 02:08:24;;;;;;;7.63;2.33;;;;;;;15.16;76.33;100821.06;2616594;54;20139;-78
2021/08/17 02:10:50;;;;;;;7.80;1.90;;;;;;;15.24;76.46;100831.38;2616514;54;20155;-77
2021/08/17 02:13:18;;;;;;;9.20;2.20;;;;;;;15.24;76.52;100832.22;2616325;54;20197;-76
2021/08/17 02:15:45;;;;;;;7.37;2.17;;;;;;;15.36;76.35;100832.28;2616428;54;20123;-78
2021/08/17 02:18:11;;;;;;;9.10;2.17;;;;;;;15.46;75.50;100835.69;2615756;50;20201;-76
2021/08/17 02:20:36;;;;;;;9.07;2.00;;;;;;;15.29;76.29;100837.41;2616441;54;20123;-77
2021/08/17 02:23:01;;;;;;;7.20;1.90;;;;;;;15.31;76.15;100846.88;2616603;54;20246;-78
2021/08/17 02:25:27;;;;;;;8.40;2.17;;;;;;;15.27;76.30;100845.16;2617740;39;20610;-76
2021/08/17 02:27:52;;;;;;;8.60;1.97;;;;;;;15.30;75.86;100847.72;2616271;47;20151;-76
2021/08/17 02:30:17;;;;;;;9.87;2.30;;;;;;;15.28;76.00;100853.75;2616214;54;20203;-76
2021/08/17 02:32:43;;;;;;;4.67;1.53;;;;;;;15.22;76.35;100852.03;2615727;54;20760;-77
2021/08/17 02:35:08;;;;;;;7.57;2.07;;;;;;;15.18;75.80;100846.84;2616508;54;20115;-76
2021/08/17 02:37:33;;;;;;;6.97;2.07;;;;;;;15.12;76.02;100844.25;2616292;54;20179;-77
2021/08/17 02:40:00;;;;;;;7.20;2.03;;;;;;;15.13;76.05;100841.69;2615739;54;20123;-76
2021/08/17 02:42:26;;;;;;;7.83;2.13;;;;;;;14.93;76.66;100845.09;2616785;54;20114;-76
2021/08/17 02:44:51;;;;;;;6.20;1.87;;;;;;;15.12;76.13;100839.97;2616282;54;20123;-75
2021/08/17 02:47:16;;;;;;;6.33;1.70;;;;;;;15.04;76.46;100844.25;2616481;54;20155;-77
2021/08/17 02:49:41;;;;;;;8.50;2.10;;;;;;;15.00;77.31;100839.06;2617240;39;20611;-76
2021/08/17 02:52:07;;;;;;;8.13;2.10;;;;;;;15.14;78.01;100845.16;2617140;47;20143;-77
2021/08/17 02:54:34;;;;;;;4.50;1.83;;;;;;;15.09;78.17;100852.88;2616944;54;20128;-77
2021/08/17 02:56:59;;;;;;;4.50;2.07;;;;;;;14.95;78.64;100845.94;2617104;54;20124;-77
2021/08/17 02:59:25;;;;;;;5.17;1.50;;;;;;;14.99;78.32;100856.28;2617012;54;20135;-75
2021/08/17 03:01:50;;;;;;;4.23;1.80;;;;;;;14.94;78.80;100854.56;2618337;39;20626;-76
2021/08/17 03:04:15;;;;;;;6.53;1.87;;;;;;;14.85;78.57;100859.69;2617166;54;20127;-76
2021/08/17 03:06:40;;;;;;;7.10;1.90;;;;;;;14.84;78.85;100845.97;2617135;54;20187;-78
2021/08/17 03:09:06;;;;;;;5.63;2.07;;;;;;;15.00;78.06;100857.13;2616918;46;20147;-78
2021/08/17 03:11:31;;;;;;;5.60;1.90;;;;;;;14.95;78.45;100862.28;2617158;54;20123;-76
2021/08/17 03:13:59;;;;;;;5.63;2.10;;;;;;;15.06;78.65;100863.16;2617140;46;20127;-77
2021/08/17 03:16:25;;;;;;;6.83;1.80;;;;;;;15.04;78.98;100864.03;2617014;54;20219;-76
2021/08/17 03:18:51;;;;;;;6.53;1.90;;;;;;;15.10;79.05;100864.91;2617087;54;20128;-76
2021/08/17 03:21:16;;;;;;;6.50;2.20;;;;;;;15.06;78.90;100863.16;2617031;54;20148;-78
2021/08/17 03:23:42;;;;;;;7.07;2.43;;;;;;;15.05;78.69;100863.19;2617299;54;20139;-77
2021/08/17 03:26:08;;;;;;;7.03;2.50;;;;;;;14.96;78.66;100870.91;2616844;54;20132;-77
2021/08/17 03:28:34;;;;;;;10.10;2.47;;;;;;;15.11;78.36;100869.19;2617063;54;20190;-78
2021/08/17 03:30:59;;;;;;;8.43;2.37;;;;;;;15.08;78.67;100865.75;2617027;54;20135;-75
2021/08/17 03:33:24;;;;;;;6.00;2.00;;;;;;;15.18;78.91;100872.63;2616893;54;20151;-76
2021/08/17 03:35:49;;;;;;;8.80;2.20;;;;;;;15.10;78.32;100870.06;2616844;54;20681;-77
2021/08/17 03:38:15;;;;;;;4.53;1.80;;;;;;;15.16;78.36;100875.25;2616830;54;20159;-76
2021/08/17 03:40:41;;;;;;;7.23;2.00;;;;;;;15.21;77.74;100880.41;2617511;39;20546;-76
2021/08/17 03:43:06;;;;;;;4.80;1.87;;;;;;;15.24;77.88;100889.00;2616974;54;20115;-76
2021/08/17 03:45:31;;;;;;;6.23;2.10;;;;;;;15.16;78.55;100885.56;2616598;54;20135;-77
2021/08/17 03:47:56;;;;;;;3.73;1.50;;;;;;;15.15;79.00;100888.97;2616895;54;20258;-76
2021/08/17 03:50:22;;;;;;;6.23;1.90;;;;;;;15.04;79.20;100890.69;2617403;54;20123;-75
2021/08/17 03:52:47;;;;;;;6.07;2.03;;;;;;;15.34;78.10;100885.59;2616951;54;20112;-76
2021/08/17 03:55:13;;;;;;;6.43;2.23;;;;;;;15.22;78.10;100892.44;2617380;54;20158;-76
2021/08/17 03:57:38;;;;;;;5.53;2.43;;;;;;;15.14;78.54;100895.00;2618021;54;20147;-77
2021/08/17 04:00:07;;;;;;;6.57;1.93;;;;;;;15.27;78.04;100890.72;2618646;54;20107;-77
2021/08/17 04:02:32;;;;;;;9.37;2.57;;;;;;;15.25;77.82;100887.28;2617257;54;20166;-77
2021/08/17 04:04:58;;;;;;;8.43;2.50;;;;;;;15.20;77.76;100891.56;2617089;47;20139;-77
2021/08/17 04:07:23;;;;;;;11.23;2.90;;;;;;;15.34;77.67;100889.91;2617232;46;20168;-75
2021/08/17 04:09:48;;;;;;;11.43;3.40;;;;;;;15.39;77.64;100886.47;2616745;54;20131;-78
2021/08/17 04:12:13;;;;;;;8.37;2.53;;;;;;;15.18;78.03;100895.84;2616825;47;20263;-77
2021/08/17 04:14:39;;;;;;;9.77;2.80;;;;;;;15.17;78.35;100896.72;2616776;54;20235;-77
2021/08/17 04:17:04;;;;;;;9.33;2.67;;;;;;;15.09;78.91;100906.16;2616798;54;20128;-75
2021/08/17 04:19:29;;;;;;;11.47;3.40;;;;;;;15.34;77.77;100905.38;2616938;54;20153;-77
2021/08/17 04:21:54;;;;;;;10.07;3.13;;;;;;;15.20;78.24;100907.91;2616996;54;20123;-76
2021/08/17 04:24:20;;;;;;;7.83;2.93;;;;;;;15.40;77.16;100903.69;2616946;46;20220;-78
2021/08/17 04:26:45;;;;;;;9.10;2.77;;;;;;;15.26;77.77;100909.63;2617621;31;20630;-77
2021/08/17 04:29:10;;;;;;;8.50;2.97;;;;;;;15.22;77.79;100910.47;2617329;46;20637;-78
2021/08/17 04:31:36;;;;;;;10.97;2.70;;;;;;;15.21;78.16;100922.53;2617374;46;20247;-76
2021/08/17 04:34:01;;;;;;;13.53;3.03;;;;;;;15.25;78.25;100916.53;2617036;54;20124;-76
2021/08/17 04:36:27;;;;;;;7.23;2.53;;;;;;;15.22;78.15;100916.53;2616317;49;20129;-77
2021/08/17 04:38:52;;;;;;;10.57;3.17;;;;;;;15.21;78.46;100921.66;2616928;46;20154;-79
2021/08/17 04:41:17;;;;;;;7.57;2.57;;;;;;;15.33;77.54;100919.13;2616914;54;20123;-77
2021/08/17 04:43:43;;;;;;;10.03;2.60;;;;;;;15.33;77.71;100924.28;2617348;39;20534;-77
2021/08/17 04:46:08;;;;;;;7.20;2.70;;;;;;;15.41;77.51;100936.34;2616673;54;20127;-78
2021/08/17 04:48:33;;;;;;;9.30;2.67;;;;;;;15.29;78.00;100938.88;2616595;54;20191;-78
2021/08/17 04:50:58;;;;;;;8.80;2.80;;;;;;;15.29;78.47;100941.47;2616776;54;20183;-79
2021/08/17 04:53:27;;;;;;;8.77;2.43;;;;;;;15.34;78.25;100951.84;2617117;54;20663;-77
2021/08/17 04:55:53;;;;;;;8.37;2.47;;;;;;;15.54;78.36;100942.38;2617320;54;20119;-76
2021/08/17 04:58:18;;;;;;;13.60;3.10;;;;;;;15.57;78.16;100935.50;2617746;39;20548;-77
2021/08/17 05:00:45;;;;;;;10.77;3.43;;;;;;;15.33;79.51;100939.75;2616849;54;20127;-78
2021/08/17 05:03:10;;;;;;;10.27;2.97;;;;;;;15.32;79.23;100941.47;2616946;54;20131;-76
2021/08/17 05:05:36;;;;;;;13.30;2.90;;;;;;;15.15;79.98;100955.19;2616813;54;20119;-76
2021/08/17 05:08:08;;;;;;;7.43;3.00;;;;;;;15.24;79.86;100952.66;2617035;54;20148;-77
2021/08/17 05:10:33;;;;;;;8.97;3.00;;;;;;;15.24;79.96;100955.22;2616816;54;20123;-77
2021/08/17 05:13:00;;;;;;;10.67;3.67;;;;;;;15.51;79.40;100965.63;2616661;54;20124;-77
2021/08/17 05:15:25;;;;;;;8.17;2.93;;;;;;;15.52;79.73;100957.03;2616230;54;20115;-75
2021/08/17 05:17:50;;;;;;;9.60;3.17;;;;;;;15.30;80.63;100968.13;2616763;54;20174;-76
2021/08/17 05:20:16;;;;;;;13.57;3.37;;;;;;;15.41;80.06;100963.88;2617019;46;20156;-76
2021/08/17 05:22:41;;;;;;;9.50;2.87;;;;;;;15.36;80.17;100963.00;2616958;54;20119;-79
2021/08/17 05:25:07;;;;;;;8.50;2.80;;;;;;;15.51;79.35;100970.81;2616959;47;20151;-77
2021/08/17 05:27:32;;;;;;;9.07;2.77;;;;;;;15.71;79.11;100969.09;2616784;54;20143;-76
2021/08/17 05:29:57;;;;;;;8.70;2.80;;;;;;;15.54;79.20;100974.25;2615654;47;20166;-78
2021/08/17 05:32:23;;;;;;;10.73;3.20;;;;;;;15.48;79.70;100966.47;2615861;54;20183;-78
2021/08/17 05:34:48;;;;;;;9.20;2.77;;;;;;;15.39;80.43;100961.31;2615157;54;20135;-78
2021/08/17 05:37:14;;;;;;;9.50;3.03;;;;;;;15.30;80.48;100969.00;2616386;54;20140;-77
2021/08/17 05:39:41;;;;;;;9.10;2.90;;;;;;;15.73;79.07;100967.34;2616599;54;20135;-77
2021/08/17 05:42:08;;;;;;;8.30;2.70;;;;;;;15.61;79.76;100967.38;2616568;54;20682;-77
2021/08/17 05:44:34;;;;;;;7.30;2.73;;;;;;;15.48;80.67;100975.94;2616711;54;20123;-77
2021/08/17 05:46:59;;;;;;;8.93;2.90;;;;;;;15.37;80.93;100983.66;2617084;39;20625;-76
2021/08/17 05:49:25;;;;;;;9.40;3.10;;;;;;;15.33;81.36;100981.06;2616625;54;20127;-78
2021/08/17 05:51:50;;;;;;;6.90;2.83;;;;;;;15.37;81.40;100981.09;2616883;46;20131;-75
2021/08/17 05:54:16;;;;;;;8.97;3.17;;;;;;;15.39;81.46;100981.97;2616871;47;20119;-78
2021/08/17 05:56:41;;;;;;;10.97;3.00;;;;;;;15.48;81.61;100981.09;2616780;54;20156;-76
2021/08/17 05:59:06;;;;;;;15.93;3.63;;;;;;;15.62;80.54;100977.69;2616710;54;21160;-77
2021/08/17 06:01:32;;;;;;;11.10;3.00;;;;;;;15.62;80.36;100982.00;2616749;51;20139;-78
2021/08/17 06:03:57;;;;;;;11.77;3.30;;;;;;;15.80;80.10;100984.59;2616288;47;20174;-77
2021/08/17 06:06:22;;;;;;;14.57;4.27;;;;;;;15.67;80.42;100977.69;2616483;54;20116;-77
2021/08/17 06:08:47;;;;;;;16.03;3.93;;;;;;;15.71;80.40;100982.00;2616611;47;20251;-76
2021/08/17 06:11:13;;;;;;;9.33;3.40;;;;;;;15.82;79.68;100986.31;2615882;54;20219;-76
2021/08/17 06:13:39;;;;;;;10.63;3.53;;;;;;;15.78;79.84;100986.28;2616163;47;20227;-78
2021/08/17 06:16:05;;;;;;;13.53;3.77;;;;;;;15.81;80.12;100983.72;2616698;54;20144;-77
2021/08/17 06:18:31;;;;;;;11.93;4.20;;;;;;;16.04;78.41;100993.22;2616509;54;20143;-79
2021/08/17 06:20:56;;;;;;;16.00;3.60;;;;;;;15.91;78.58;101001.81;2616437;54;20149;-75
2021/08/17 06:23:21;;;;;;;7.60;3.17;;;;;;;15.81;79.31;100991.47;2616572;47;20256;-78
2021/08/17 06:25:46;;;;;;;12.63;3.70;;;;;;;15.99;78.67;100999.22;2615138;47;20123;-78
2021/08/17 06:28:12;;;;;;;11.50;3.30;;;;;;;15.92;78.99;100997.50;2616230;54;20170;-77
2021/08/17 06:30:39;;;;;;;8.93;3.00;;;;;;;15.80;79.24;101005.25;2616363;54;20131;-76
2021/08/17 06:33:05;;;;;;;7.57;2.97;;;;;;;15.93;78.92;101007.81;2616274;54;20127;-78
2021/08/17 06:35:31;;;;;;;8.20;2.60;;;;;;;15.86;79.61;101005.25;2616881;39;20530;-76
2021/08/17 06:37:56;;;;;;;7.87;2.90;;;;;;;16.05;78.25;101004.38;2615875;47;20171;-76
2021/08/17 06:40:23;;;;;;;7.70;2.60;;;;;;;16.05;78.78;101006.97;2616590;54;20132;-78
2021/08/17 06:42:48;;;;;;;8.83;3.10;;;;;;;16.11;78.64;101009.56;2616474;54;20135;-79
2021/08/17 06:45:13;;;;;;;7.63;2.63;;;;;;;16.03;78.58;101009.53;2616498;54;20152;-76
2021/08/17 06:47:52;;;;;;;5.93;2.53;;;;;;;16.07;78.09;101002.69;2616485;54;20147;-76
2021/08/17 06:50:18;;;;;;;7.63;2.57;;;;;;;15.97;78.15;101031.97;2616411;54;20128;-76
2021/08/17 06:52:44;;;;;;;6.23;2.40;;;;;;;15.99;78.41;101023.34;2616670;54;20207;-79
2021/08/17 06:55:11;;;;;;;7.13;2.63;;;;;;;16.15;78.46;101017.31;2616136;54;20170;-76
2021/08/17 06:57:37;;;;;;;6.07;2.07;;;;;;;16.18;77.92;101022.47;2616305;54;20146;-77
2021/08/17 07:00:08;;;;;;;6.27;2.83;;;;;;;15.90;78.71;101032.81;2615971;54;20211;-76
2021/08/17 07:02:34;;;;;;;5.93;2.13;;;;;;;15.90;78.69;101032.81;2615789;54;20147;-76
2021/08/17 07:04:59;;;;;;;4.13;1.80;;;;;;;15.77;79.37;101031.94;2616435;39;20798;-76
2021/08/17 07:07:24;;;;;;;4.93;1.80;;;;;;;15.80;79.53;101023.31;2616229;39;20961;-78
2021/08/17 07:09:50;;;;;;;7.63;2.10;;;;;;;15.76;78.75;101025.06;2615907;54;20128;-75
2021/08/17 07:12:15;;;;;;;5.33;1.57;;;;;;;15.79;77.90;101042.28;2616033;54;20159;-78
2021/08/17 07:14:40;;;;;;;3.67;1.53;;;;;;;15.67;78.32;101031.91;2616122;54;20139;-78
2021/08/17 07:17:06;;;;;;;5.57;1.90;;;;;;;15.48;79.44;101025.81;2616353;54;20690;-77
2021/08/17 07:19:31;;;;;;;4.70;1.80;;;;;;;15.59;79.31;101031.03;2615990;54;20131;-78
2021/08/17 07:21:57;;;;;;;3.03;1.33;;;;;;;15.64;78.23;101027.59;2616019;54;20132;-80
2021/08/17 07:24:23;;;;;;;2.77;1.50;;;;;;;15.47;79.45;101031.84;2633277;36;20198;-78
2021/08/17 07:26:48;;;;;;;3.23;1.70;;;;;;;15.52;79.44;101026.72;2615886;54;20151;-76
2021/08/17 07:29:13;;;;;;;2.47;1.60;;;;;;;15.41;79.93;101030.97;2615917;54;20276;-77
2021/08/17 07:31:39;;;;;;;3.23;1.37;;;;;;;15.49;79.68;101037.03;2615902;54;20135;-77
2021/08/17 07:34:05;;;;;;;2.23;1.10;;;;;;;15.50;79.61;101028.41;2615979;54;20162;-79
2021/08/17 07:36:32;;;;;;;3.77;1.43;;;;;;;15.38;79.81;101037.00;2615996;54;20182;-76
2021/08/17 07:38:58;;;;;;;2.37;1.50;;;;;;;15.40;80.71;101042.16;2616428;54;20139;-77
2021/08/17 07:41:23;;;;;;;2.93;1.47;;;;;;;15.32;81.07;101034.38;2616646;54;20155;-76
2021/08/17 07:43:49;;;;;;;3.07;1.53;;;;;;;15.28;81.14;101039.53;2617100;31;20655;-78
2021/08/17 07:46:14;;;;;;;2.87;1.40;;;;;;;15.40;80.35;101037.88;2616498;54;20153;-76
2021/08/17 07:48:39;;;;;;;4.57;1.53;;;;;;;15.37;81.14;101047.34;2616575;54;20243;-77
2021/08/17 07:51:05;;;;;;;3.50;1.60;;;;;;;15.90;79.16;101036.25;2616618;54;20131;-77
2021/08/17 07:53:30;;;;;;;3.63;1.30;;;;;;;16.03;78.24;101037.13;2618270;31;20645;-77
2021/08/17 07:55:56;;;;;;;1.77;1.20;;;;;;;15.97;78.21;101037.13;2616532;54;20163;-77
2021/08/17 07:58:21;;;;;;;2.43;1.30;;;;;;;15.93;78.19;101044.00;2615880;47;20174;-78
2021/08/17 08:00:46;;;;;;;3.33;1.80;;;;;;;15.82;78.13;101043.13;2616969;54;20147;-76
2021/08/17 08:03:11;;;;;;;4.63;1.77;;;;;;;15.75;78.75;101045.69;2617966;46;20713;-76
2021/08/17 08:05:37;;;;;;;4.53;1.63;;;;;;;15.73;77.99;101053.44;2617950;54;20236;-77
2021/08/17 08:08:03;;;;;;;5.30;1.90;;;;;;;15.51;79.84;101059.41;2618192;54;20183;-75
2021/08/17 08:10:28;;;;;;;2.97;1.60;;;;;;;15.52;78.90;101047.38;2616934;54;20125;-77
2021/08/17 08:12:54;;;;;;;3.10;1.83;;;;;;;15.67;78.67;101060.31;2616624;54;20148;-77
2021/08/17 08:15:19;;;;;;;3.67;2.00;;;;;;;15.91;77.98;101055.19;2616678;54;20116;-76
2021/08/17 08:17:44;;;;;;;5.27;2.00;;;;;;;15.98;78.60;101055.19;2616728;39;20539;-78
2021/08/17 08:20:10;;;;;;;4.00;1.70;;;;;;;16.02;78.97;101046.56;2616642;54;20124;-76
2021/08/17 08:22:36;;;;;;;3.27;1.90;;;;;;;16.05;78.53;101053.47;2616549;54;20128;-76
2021/08/17 08:25:02;;;;;;;4.97;2.50;;;;;;;16.22;78.11;101055.22;2616589;54;20122;-76
2021/08/17 08:27:27;;;;;;;6.60;3.10;;;;;;;16.34;76.89;101054.34;2616446;54;20741;-74
2021/08/17 08:29:53;;;;;;;4.63;2.53;;;;;;;16.12;77.66;101061.22;2616420;46;20139;-76
2021/08/17 08:32:18;;;;;;;5.87;2.27;;;;;;;16.14;78.09;101062.09;2617088;39;20547;-78
2021/08/17 08:34:43;;;;;;;8.87;2.90;;;;;;;16.34;78.27;101062.94;2616869;46;20143;-78
2021/08/17 08:37:08;;;;;;;8.13;3.60;;;;;;;16.15;79.33;101073.28;2616502;54;20122;-77
2021/08/17 08:39:34;;;;;;;5.57;2.47;;;;;;;16.03;79.31;101062.94;2616997;31;20648;-77
2021/08/17 08:42:01;;;;;;;6.70;2.87;;;;;;;16.26;78.22;101069.00;2616364;54;20123;-75
2021/08/17 08:44:26;;;;;;;9.13;2.67;;;;;;;16.14;78.21;101076.72;2616505;54;20119;-76
2021/08/17 08:46:52;;;;;;;9.27;3.03;;;;;;;16.15;78.35;101075.84;2616422;54;20202;-77
2021/08/17 08:49:19;;;;;;;8.10;3.13;;;;;;;16.06;77.99;101091.34;2616883;39;20503;-76
2021/08/17 08:51:45;;;;;;;10.70;3.20;;;;;;;16.08;76.90;101079.31;2616385;54;20135;-75
2021/08/17 08:54:10;;;;;;;8.67;4.00;;;;;;;15.93;78.41;101085.31;2616547;54;20139;-77
2021/08/17 08:56:35;;;;;;;11.83;3.60;;;;;;;15.79;78.68;101083.59;2616687;46;20148;-77
2021/08/17 08:59:01;;;;;;;9.20;3.30;;;;;;;16.16;78.12;101081.03;2616550;46;20235;-77
2021/08/17 09:01:27;;;;;;;10.90;3.90;;;;;;;15.91;78.34;101081.88;2616416;54;20215;-76
2021/08/17 09:03:53;;;;;;;11.47;3.77;;;;;;;15.88;78.66;101079.28;2616578;54;20207;-78
2021/08/17 09:06:19;;;;;;;16.87;4.67;;;;;;;15.75;79.13;101081.84;2616230;54;20132;-76
2021/08/17 09:08:44;;;;;;;12.47;3.90;;;;;;;15.67;80.00;101078.38;2616756;39;20575;-77
2021/08/17 09:11:15;;;;;;;11.70;3.70;;;;;;;15.83;78.66;101077.53;2616325;54;20143;-75
2021/08/17 09:13:40;;;;;;;12.33;4.20;;;;;;;15.77;79.16;101086.16;2616628;54;20904;-77
2021/08/17 09:16:26;;;;;;;10.53;3.90;;;;;;;15.94;78.55;101088.78;2616729;54;20127;-77
2021/08/17 09:18:52;;;;;;;13.17;4.20;;;;;;;15.84;78.79;101072.38;2616690;54;20147;-75
2021/08/17 09:21:35;;;;;;;9.63;3.40;;;;;;;15.81;79.12;101085.31;2616758;54;20179;-76
2021/08/17 09:24:18;;;;;;;14.33;4.07;;;;;;;16.13;78.02;101091.38;2616049;54;20147;-78
2021/08/17 09:26:46;;;;;;;9.03;3.47;;;;;;;15.94;78.06;101089.63;2617169;39;20631;-77
2021/08/17 09:29:21;;;;;;;13.07;4.07;;;;;;;15.91;78.72;101083.59;2616605;54;20197;-75
2021/08/17 09:31:47;;;;;;;9.33;3.20;;;;;;;15.96;79.30;101087.03;2616566;54;20123;-76
2021/08/17 09:34:12;;;;;;;11.03;3.67;;;;;;;15.91;79.02;101091.34;2616550;54;20123;-77
2021/08/17 09:36:39;;;;;;;11.33;3.33;;;;;;;16.06;78.97;101099.97;2616889;47;20112;-79
2021/08/17 09:39:06;;;;;;;13.53;3.73;;;;;;;15.92;79.60;101093.06;2616537;54;20143;-77
2021/08/17 09:41:31;;;;;;;12.93;3.57;;;;;;;16.06;79.27;101104.28;2616551;54;20120;-78
2021/08/17 09:43:58;;;;;;;8.33;3.00;;;;;;;15.91;79.98;101097.38;2616651;54;21047;-77
2021/08/17 09:46:35;;;;;;;9.90;3.40;;;;;;;16.00;79.09;101101.69;2616627;54;20187;-77
2021/08/17 09:49:31;;;;;;;10.27;3.27;;;;;;;15.84;79.11;101099.94;2616876;39;20601;-78
2021/08/17 09:52:15;;;;;;;10.63;3.33;;;;;;;15.82;79.92;101099.94;2616800;54;20128;-78
2021/08/17 09:54:45;;;;;;;10.47;3.67;;;;;;;15.87;79.68;101102.53;2616726;39;20513;-75
2021/08/17 09:57:12;;;;;;;9.67;3.43;;;;;;;15.82;80.22;101105.09;2616545;54;20123;-76
2021/08/17 09:59:40;;;;;;;11.63;3.53;;;;;;;15.80;80.24;101100.81;2616673;54;20127;-77
2021/08/17 10:02:07;;;;;;;7.83;3.70;;;;;;;16.01;79.38;101111.16;2616282;54;20124;-76
2021/08/17 10:04:34;;;;;;;10.77;3.60;;;;;;;16.05;79.18;101102.56;2616649;39;20540;-75
2021/08/17 10:07:01;;;;;;;8.83;3.10;;;;;;;15.88;79.81;101110.28;2616213;54;20152;-76
2021/08/17 10:09:28;;;;;;;13.27;4.03;;;;;;;15.82;80.13;101110.28;2616230;54;20123;-77
2021/08/17 10:11:54;;;;;;;9.90;3.50;;;;;;;15.91;80.29;101120.63;2616579;54;20663;-76
2021/08/17 10:14:20;;;;;;;9.60;3.37;;;;;;;15.91;80.46;101119.75;2616203;54;20199;-75
2021/08/17 10:16:45;;;;;;;8.30;3.90;;;;;;;15.88;80.33;101130.09;2616530;54;20132;-78
2021/08/17 10:19:12;;;;;;;13.50;3.97;;;;;;;15.69;81.25;101129.16;2616455;54;20131;-76
2021/08/17 10:21:40;;;;;;;13.97;4.10;;;;;;;15.74;80.91;101124.88;2616271;54;20127;-76
2021/08/17 10:24:31;;;;;;;9.33;3.80;;;;;;;15.80;80.34;101116.28;2616877;39;20521;-78
2021/08/17 10:27:21;;;;;;;9.00;3.10;;;;;;;15.73;80.28;101122.28;2616874;39;20834;-77
2021/08/17 10:29:57;;;;;;;10.53;3.50;;;;;;;15.73;80.79;101127.44;2615493;47;20243;-76
2021/08/17 10:32:45;;;;;;;9.80;3.67;;;;;;;15.67;80.94;101130.91;2616919;39;20536;-77
2021/08/17 10:35:25;;;;;;;14.90;3.90;;;;;;;15.92;80.69;101124.06;2616278;54;20141;-75
2021/08/17 10:37:51;;;;;;;10.43;3.17;;;;;;;15.98;80.75;101127.50;2616783;39;20446;-76
2021/08/17 10:40:48;;;;;;;8.33;3.50;;;;;;;16.18;79.66;101117.22;2616394;54;20139;-78
2021/08/17 10:43:18;;;;;;;11.60;3.40;;;;;;;15.96;80.64;101118.03;2615986;51;20139;-76
2021/08/17 10:45:50;;;;;;;9.97;3.60;;;;;;;16.25;79.46;101113.78;2616802;54;20135;-75
2021/08/17 10:48:44;;;;;;;9.70;3.23;;;;;;;16.23;79.01;101128.41;2616505;39;20541;-76
2021/08/17 10:51:11;;;;;;;10.57;3.47;;;;;;;16.37;78.75;101113.78;2633477;36;20202;-76
2021/08/17 10:53:38;;;;;;;13.23;3.57;;;;;;;16.25;79.02;101114.63;2615762;54;20724;-78
2021/08/17 10:56:14;;;;;;;10.07;3.40;;;;;;;16.30;79.11;101115.50;2615843;54;20131;-77
2021/08/17 10:58:45;;;;;;;9.43;3.70;;;;;;;16.15;79.21;101115.50;2616133;39;20567;-77
2021/08/17 11:01:11;;;;;;;8.00;3.70;;;;;;;16.38;79.47;101112.91;2616145;54;20214;-77
2021/08/17 11:03:41;;;;;;;10.03;3.20;;;;;;;16.33;79.95;101104.28;2616059;54;20116;-76
2021/08/17 11:06:06;;;;;;;11.23;4.00;;;;;;;16.49;80.54;101111.25;2616233;54;21043;-76
2021/08/17 11:08:32;;;;;;;10.67;3.57;;;;;;;16.63;78.79;101105.19;2616236;54;20163;-76
2021/08/17 11:10:59;;;;;;;10.13;3.17;;;;;;;16.68;77.60;101110.38;2616221;54;20135;-77
2021/08/17 11:13:26;;;;;;;9.20;3.10;;;;;;;16.65;78.84;101103.47;2616673;54;20127;-76
2021/08/17 11:16:08;;;;;;;12.27;3.57;;;;;;;16.72;77.80;101112.94;2616779;54;20123;-76
2021/08/17 11:18:54;;;;;;;10.47;3.60;;;;;;;16.83;77.51;101100.88;2616745;54;20208;-77
2021/08/17 11:21:32;;;;;;;10.13;3.47;;;;;;;16.88;78.13;101101.72;2615989;47;20120;-77